Terminal Aerodrome Forecast
Issued by NWS

Home | Current Version | Previous Version | Text Only | Print | Product List | Glossary On
Versions: 1 2 3 4 5 6 7 8 9 10 11 12 13 14 15 16 17 18 19 20 21 22 23 24
611
FTUS44 KOUN 241737
TAFLAW
TAF
KLAW 241737Z 2418/2518 17012KT P6SM BKN030 BKN100
     FM242000 16009KT P6SM BKN035
      TEMPO 2422/2502 2SM TSRA OVC025CB
     FM250200 12007KT 5SM SHRA OVC035
      TEMPO 2502/2505 3SM -TSRA OVC025CB
     FM250500 13006KT 4SM -TSRA BR OVC015CB
     FM251500 VRB04KT 5SM -TSRA OVC025CB=

USA.gov is the U.S. government's official web portal to all federal, state and local government web resources and services.